createdAt,value
2018-01-30T00:02:17.826Z,38.86
2018-01-30T00:04:48.207Z,38.96
2018-01-30T00:07:18.501Z,38.86
2018-01-30T00:09:48.720Z,38.95
2018-01-30T00:12:19.045Z,38.87
2018-01-30T00:14:49.268Z,38.88
2018-01-30T00:17:20.210Z,38.88
2018-01-30T00:19:50.532Z,38.86
2018-01-30T00:22:20.841Z,38.79
2018-01-30T00:24:52.081Z,38.84
2018-01-30T00:27:22.720Z,38.83
2018-01-30T00:29:53.045Z,38.93
2018-01-30T00:32:23.359Z,38.90
2018-01-30T00:34:54.249Z,38.86
2018-01-30T00:37:24.520Z,38.78
2018-01-30T00:39:55.764Z,38.70
2018-01-30T00:42:26.936Z,38.84
2018-01-30T00:44:58.922Z,38.82
2018-01-30T00:47:29.880Z,38.72
2018-01-30T00:50:00.780Z,38.56
2018-01-30T00:52:31.085Z,38.61
2018-01-30T00:55:01.332Z,38.72
2018-01-30T00:57:32.081Z,38.63
2018-01-30T01:00:02.321Z,38.65
2018-01-30T01:02:32.577Z,38.65
2018-01-30T01:05:02.851Z,38.59
2018-01-30T01:07:33.984Z,38.65
2018-01-30T01:10:04.304Z,38.89
2018-01-30T01:12:35.180Z,39.21
2018-01-30T01:15:05.347Z,39.44
2018-01-30T01:17:36.339Z,39.56
2018-01-30T01:20:07.137Z,39.67
2018-01-30T01:22:37.409Z,39.83
2018-01-30T01:25:08.705Z,39.75
2018-01-30T01:27:40.725Z,39.88
2018-01-30T01:30:11.800Z,39.93
2018-01-30T01:35:19.797Z,40.10
2018-01-30T01:37:50.753Z,40.20
2018-01-30T01:40:21.914Z,40.20
2018-01-30T01:42:54.766Z,39.94
2018-01-30T01:45:26.453Z,40.09
2018-01-30T01:47:56.747Z,40.00
2018-01-30T01:50:27.197Z,39.89
2018-01-30T01:52:57.445Z,39.75
2018-01-30T01:55:27.717Z,39.71
2018-01-30T01:57:57.994Z,39.37
2018-01-30T02:00:28.809Z,39.45
2018-01-30T02:02:59.147Z,39.50
2018-01-30T02:05:29.432Z,39.55
2018-01-30T02:08:00.085Z,39.39
2018-01-30T02:10:31.093Z,39.30
2018-01-30T02:13:01.368Z,39.38
2018-01-30T02:15:31.632Z,39.41
2018-01-30T02:18:02.673Z,39.32
2018-01-30T02:20:35.384Z,39.39
2018-01-30T02:23:06.367Z,39.38
2018-01-30T02:25:40.470Z,39.33
2018-01-30T02:28:11.816Z,39.30
2018-01-30T02:30:42.779Z,39.31
2018-01-30T02:33:15.997Z,39.26
2018-01-30T02:35:47.785Z,39.58
2018-01-30T02:38:20.161Z,39.15
2018-01-30T02:40:51.048Z,39.28
2018-01-30T02:43:22.032Z,39.53
2018-01-30T02:45:53.311Z,39.35
2018-01-30T02:48:23.549Z,39.44
2018-01-30T02:50:54.946Z,39.69
2018-01-30T02:53:26.130Z,39.45
2018-01-30T02:55:56.677Z,39.41
2018-01-30T02:58:26.992Z,39.53
2018-01-30T03:00:58.897Z,39.47
2018-01-30T03:03:29.242Z,39.46
2018-01-30T03:06:00.997Z,39.47
2018-01-30T03:08:31.242Z,39.47
2018-01-30T03:11:01.505Z,39.44
2018-01-30T03:13:31.780Z,39.46
2018-01-30T03:16:02.054Z,39.45
2018-01-30T03:18:32.320Z,39.55
2018-01-30T03:21:03.700Z,39.54
2018-01-30T03:23:33.969Z,39.59
2018-01-30T03:26:04.498Z,39.61
2018-01-30T03:28:34.774Z,39.71
2018-01-30T03:31:06.081Z,39.76
2018-01-30T03:33:37.159Z,39.71
2018-01-30T03:36:07.438Z,39.70
2018-01-30T03:38:37.757Z,39.71
2018-01-30T03:41:08.571Z,39.78
2018-01-30T03:43:38.865Z,39.76
2018-01-30T03:46:09.656Z,39.75
2018-01-30T03:48:39.909Z,39.76
2018-01-30T03:51:10.170Z,39.82
2018-01-30T03:53:41.465Z,39.83
2018-01-30T03:56:11.745Z,39.85
2018-01-30T03:58:42.033Z,39.83
2018-01-30T04:01:13.063Z,39.82
2018-01-30T04:03:43.361Z,39.79
2018-01-30T04:06:13.661Z,39.83
2018-01-30T04:08:43.876Z,39.79
2018-01-30T04:11:14.115Z,39.80
2018-01-30T04:13:44.396Z,39.79
2018-01-30T04:16:14.655Z,39.82
2018-01-30T04:18:44.888Z,39.80
2018-01-30T04:21:15.106Z,39.85
2018-01-30T04:23:45.373Z,39.76
2018-01-30T04:26:16.764Z,39.80
2018-01-30T04:28:47.009Z,39.84
2018-01-30T04:31:17.252Z,39.75
2018-01-30T04:33:47.522Z,39.56
2018-01-30T04:36:17.757Z,39.90
2018-01-30T04:38:48.688Z,40.25
2018-01-30T04:41:19.628Z,40.48
2018-01-30T04:43:49.848Z,40.79
2018-01-30T04:46:20.107Z,40.95
2018-01-30T04:48:50.345Z,40.92
2018-01-30T04:51:21.453Z,40.92
2018-01-30T04:53:52.560Z,41.15
2018-01-30T04:56:22.802Z,41.10
2018-01-30T04:58:54.026Z,41.50
2018-01-30T05:01:25.395Z,41.23
2018-01-30T05:03:55.681Z,41.32
2018-01-30T05:06:25.949Z,41.35
2018-01-30T05:08:56.193Z,41.49
2018-01-30T05:11:27.070Z,41.43
2018-01-30T05:13:57.322Z,41.27
2018-01-30T05:16:27.565Z,41.33
2018-01-30T05:18:57.993Z,41.13
2018-01-30T05:21:28.259Z,41.14
2018-01-30T05:23:58.525Z,41.14
2018-01-30T05:26:30.321Z,41.08
2018-01-30T05:29:00.666Z,40.88
2018-01-30T05:31:31.126Z,40.76
2018-01-30T05:34:02.481Z,40.81
2018-01-30T05:36:32.976Z,40.71
2018-01-30T05:39:03.503Z,40.84
2018-01-30T05:41:34.003Z,40.83
2018-01-30T05:44:04.437Z,40.80
2018-01-30T05:46:34.744Z,40.70
2018-01-30T05:49:05.006Z,40.75
2018-01-30T05:51:35.237Z,40.64
2018-01-30T05:54:06.231Z,40.77
2018-01-30T05:56:36.557Z,40.65
2018-01-30T05:59:06.846Z,40.70
2018-01-30T06:01:37.091Z,40.66
2018-01-30T06:04:07.498Z,40.46
2018-01-30T06:06:37.817Z,40.58
2018-01-30T06:09:08.100Z,40.42
2018-01-30T06:11:38.418Z,40.48
2018-01-30T06:14:08.660Z,40.32
2018-01-30T06:16:38.909Z,40.46
2018-01-30T06:19:09.168Z,40.26
2018-01-30T06:21:39.424Z,40.13
2018-01-30T06:24:09.696Z,40.31
2018-01-30T06:26:39.921Z,40.26
2018-01-30T06:29:10.341Z,40.30
2018-01-30T06:31:40.586Z,40.22
2018-01-30T06:34:11.022Z,40.33
2018-01-30T06:36:42.086Z,40.11
2018-01-30T06:39:12.356Z,40.10
2018-01-30T06:41:42.694Z,40.01
2018-01-30T06:44:13.052Z,40.01
2018-01-30T06:46:43.281Z,39.97
2018-01-30T06:49:13.534Z,39.90
2018-01-30T06:51:43.797Z,39.86
2018-01-30T06:54:14.121Z,40.11
2018-01-30T06:56:44.372Z,39.87
2018-01-30T06:59:14.778Z,40.01
2018-01-30T07:01:46.242Z,39.81
2018-01-30T07:04:17.362Z,39.95
2018-01-30T07:06:47.701Z,39.95
2018-01-30T07:09:18.117Z,40.00
2018-01-30T07:11:48.376Z,40.11
2018-01-30T07:14:18.638Z,39.97
2018-01-30T07:16:48.902Z,39.94
2018-01-30T07:19:19.146Z,43.17
2018-01-30T07:21:49.432Z,44.41
2018-01-30T07:24:19.781Z,42.92
2018-01-30T07:26:50.181Z,41.15
2018-01-30T07:29:20.664Z,40.45
2018-01-30T07:31:50.893Z,40.11
2018-01-30T07:34:21.156Z,39.74
2018-01-30T07:36:51.541Z,40.52
2018-01-30T07:39:21.810Z,47.22
2018-01-30T07:41:52.086Z,45.04
2018-01-30T07:44:22.354Z,46.19
2018-01-30T07:46:52.592Z,44.91
2018-01-30T07:49:22.919Z,40.76
2018-01-30T07:51:54.254Z,39.43
2018-01-30T07:54:24.736Z,39.83
2018-01-30T07:56:55.103Z,41.46
2018-01-30T07:59:25.403Z,41.04
2018-01-30T08:01:55.637Z,41.22
2018-01-30T08:04:25.949Z,41.13
2018-01-30T08:06:56.248Z,40.82
2018-01-30T08:09:26.743Z,40.92
2018-01-30T08:11:57.387Z,41.14
2018-01-30T08:14:27.773Z,40.97
2018-01-30T08:16:58.255Z,40.91
2018-01-30T08:19:28.709Z,40.84
2018-01-30T08:21:59.163Z,40.96
2018-01-30T08:24:32.096Z,40.93
2018-01-30T08:27:02.363Z,41.00
2018-01-30T08:29:32.950Z,41.00
2018-01-30T08:32:03.179Z,40.90
2018-01-30T08:34:33.422Z,40.95
2018-01-30T08:37:03.637Z,41.05
2018-01-30T08:39:33.896Z,40.94
2018-01-30T08:42:04.129Z,41.15
2018-01-30T08:44:34.423Z,41.05
2018-01-30T08:47:04.682Z,41.02
2018-01-30T08:49:34.912Z,41.59
2018-01-30T08:52:05.066Z,41.98
2018-01-30T08:54:35.333Z,42.09
2018-01-30T08:57:05.608Z,41.94
2018-01-30T08:59:35.849Z,42.39
2018-01-30T09:02:06.093Z,42.38
2018-01-30T09:04:36.346Z,42.61
2018-01-30T09:07:06.594Z,42.33
2018-01-30T09:09:36.887Z,42.67
2018-01-30T09:12:07.111Z,42.97
2018-01-30T09:14:37.322Z,42.88
2018-01-30T09:17:08.402Z,42.56
2018-01-30T09:19:38.676Z,43.02
2018-01-30T09:22:09.406Z,42.73
2018-01-30T09:24:39.678Z,42.82
2018-01-30T09:27:09.902Z,42.44
2018-01-30T09:29:40.184Z,42.99
2018-01-30T09:32:10.404Z,42.96
2018-01-30T09:34:41.277Z,42.87
2018-01-30T09:37:12.653Z,42.78
2018-01-30T09:39:42.976Z,43.07
2018-01-30T09:42:13.242Z,42.84
2018-01-30T09:44:43.601Z,42.84
2018-01-30T09:47:13.820Z,42.86
2018-01-30T09:49:44.045Z,43.03
2018-01-30T09:52:15.442Z,42.85
2018-01-30T09:54:45.712Z,42.70
2018-01-30T09:57:16.585Z,42.59
2018-01-30T09:59:46.876Z,42.81
2018-01-30T10:02:17.878Z,42.70
2018-01-30T10:04:49.064Z,42.77
2018-01-30T10:07:19.268Z,42.67
2018-01-30T10:09:49.512Z,42.55
2018-01-30T10:12:19.733Z,42.57
2018-01-30T10:14:50.188Z,42.57
2018-01-30T10:17:20.505Z,42.50
2018-01-30T10:19:50.756Z,42.40
2018-01-30T10:22:21.024Z,42.38
2018-01-30T10:24:51.264Z,42.26
2018-01-30T10:27:21.547Z,42.20
2018-01-30T10:29:51.789Z,42.23
2018-01-30T10:32:22.079Z,42.13
2018-01-30T10:34:52.340Z,42.05
2018-01-30T10:37:22.585Z,42.03
2018-01-30T10:39:52.840Z,41.89
2018-01-30T10:42:23.068Z,41.85
2018-01-30T10:44:53.388Z,41.86
2018-01-30T10:47:23.614Z,41.96
2018-01-30T10:49:53.875Z,41.85
2018-01-30T10:52:24.832Z,41.82
2018-01-30T10:54:55.095Z,41.73
2018-01-30T10:57:25.361Z,41.73
2018-01-30T10:59:55.622Z,41.69
2018-01-30T11:02:26.095Z,41.62
2018-01-30T11:04:56.331Z,41.55
2018-01-30T11:07:26.657Z,41.45
2018-01-30T11:09:57.033Z,41.45
2018-01-30T11:12:27.285Z,41.41
2018-01-30T11:14:57.526Z,41.49
2018-01-30T11:17:27.752Z,41.50
2018-01-30T11:19:58.110Z,41.46
2018-01-30T11:22:28.909Z,41.47
2018-01-30T11:24:59.130Z,41.43
2018-01-30T11:27:29.525Z,41.34
2018-01-30T11:30:00.466Z,41.30
2018-01-30T11:32:30.743Z,41.33
2018-01-30T11:35:00.968Z,41.34
2018-01-30T11:37:31.231Z,41.33
2018-01-30T11:40:01.488Z,41.36
2018-01-30T11:42:31.706Z,41.30
2018-01-30T11:45:01.937Z,41.33
2018-01-30T11:47:32.236Z,41.21
2018-01-30T11:50:02.474Z,41.18
2018-01-30T11:52:32.690Z,41.22
2018-01-30T11:55:03.002Z,41.13
2018-01-30T11:57:33.257Z,41.12
2018-01-30T12:00:03.530Z,41.11
2018-01-30T12:02:33.755Z,41.11
2018-01-30T12:05:04.032Z,41.06
2018-01-30T12:07:34.270Z,41.05
2018-01-30T12:10:04.556Z,41.04
2018-01-30T12:12:34.829Z,41.06
2018-01-30T12:15:05.112Z,41.06
2018-01-30T12:17:36.207Z,41.09
2018-01-30T12:20:06.473Z,41.00
2018-01-30T12:22:36.728Z,41.05
2018-01-30T12:25:06.969Z,41.00
2018-01-30T12:27:37.240Z,41.03
2018-01-30T12:30:07.476Z,40.99
2018-01-30T12:32:38.810Z,40.95
2018-01-30T12:35:09.132Z,40.97
2018-01-30T12:37:39.387Z,40.96
2018-01-30T12:40:10.358Z,40.96
2018-01-30T12:42:40.615Z,40.92
2018-01-30T12:45:10.922Z,40.87
2018-01-30T12:47:41.203Z,40.90
2018-01-30T12:50:12.241Z,40.85
2018-01-30T12:52:42.550Z,40.86
2018-01-30T12:55:12.868Z,40.87
2018-01-30T12:57:43.112Z,40.88
2018-01-30T13:00:13.357Z,40.86
2018-01-30T13:02:43.601Z,40.88
2018-01-30T13:05:13.910Z,40.85
2018-01-30T13:07:44.125Z,40.86
2018-01-30T13:10:14.344Z,40.81
2018-01-30T13:12:44.648Z,40.76
2018-01-30T13:15:14.901Z,40.73
2018-01-30T13:17:45.112Z,40.71
2018-01-30T13:20:15.384Z,40.74
2018-01-30T13:22:45.636Z,40.67
2018-01-30T13:25:15.781Z,40.61
2018-01-30T13:27:46.056Z,40.62
2018-01-30T13:30:16.329Z,40.65
2018-01-30T13:32:46.594Z,40.63
2018-01-30T13:35:16.889Z,40.66
2018-01-30T13:37:47.203Z,40.65
2018-01-30T13:40:17.483Z,40.62
2018-01-30T13:42:47.717Z,40.63
2018-01-30T13:45:18.008Z,40.64
2018-01-30T13:47:48.245Z,40.59
2018-01-30T13:50:18.521Z,40.59
2018-01-30T13:52:48.774Z,40.61
2018-01-30T13:55:20.019Z,40.61
2018-01-30T13:57:50.341Z,40.65
2018-01-30T14:00:22.490Z,40.59
2018-01-30T14:02:52.805Z,40.31
2018-01-30T14:05:23.795Z,40.47
2018-01-30T14:07:54.205Z,40.47
2018-01-30T14:10:25.344Z,40.51
2018-01-30T14:12:55.620Z,40.41
2018-01-30T14:15:25.956Z,40.32
2018-01-30T14:17:56.230Z,40.22
2018-01-30T14:20:26.543Z,40.21
2018-01-30T14:22:56.824Z,40.20
2018-01-30T14:25:27.104Z,40.13
2018-01-30T14:27:57.386Z,40.06
2018-01-30T14:30:27.696Z,39.38
2018-01-30T14:32:57.978Z,39.25
2018-01-30T14:35:28.204Z,38.88
2018-01-30T14:37:58.515Z,39.22
2018-01-30T14:40:28.833Z,39.51
2018-01-30T14:42:59.140Z,39.36
2018-01-30T14:45:30.728Z,39.24
2018-01-30T14:48:00.957Z,39.29
2018-01-30T14:50:31.256Z,39.52
2018-01-30T14:53:01.587Z,39.43
2018-01-30T14:55:31.851Z,39.42
2018-01-30T14:58:02.018Z,39.35
2018-01-30T15:00:32.262Z,39.15
2018-01-30T15:03:02.568Z,39.19
2018-01-30T15:05:32.912Z,39.25
2018-01-30T15:08:03.132Z,39.16
2018-01-30T15:10:33.393Z,39.34
2018-01-30T15:13:03.660Z,39.25
2018-01-30T15:15:34.379Z,39.19
2018-01-30T15:18:04.652Z,39.17
2018-01-30T15:20:34.935Z,39.10
2018-01-30T15:23:05.185Z,39.14
2018-01-30T15:25:35.482Z,38.88
2018-01-30T15:28:05.760Z,39.04
2018-01-30T15:30:36.035Z,38.99
2018-01-30T15:33:06.352Z,39.04
2018-01-30T15:35:36.669Z,39.00
2018-01-30T15:38:06.962Z,38.96
2018-01-30T15:40:37.205Z,39.04
2018-01-30T15:43:07.368Z,38.98
2018-01-30T15:45:37.616Z,39.03
2018-01-30T15:48:07.893Z,39.01
2018-01-30T15:50:39.226Z,38.97
2018-01-30T15:53:09.469Z,39.07
2018-01-30T15:55:40.669Z,39.01
2018-01-30T15:58:10.923Z,38.97
2018-01-30T16:00:41.151Z,38.95
2018-01-30T16:03:11.446Z,38.93
2018-01-30T16:05:41.740Z,39.09
2018-01-30T16:08:13.312Z,39.14
2018-01-30T16:10:43.572Z,39.06
2018-01-30T16:13:13.788Z,39.15
2018-01-30T16:15:44.031Z,39.14
2018-01-30T16:18:14.313Z,39.07
2018-01-30T16:20:45.612Z,39.14
2018-01-30T16:23:15.904Z,39.07
2018-01-30T16:25:46.194Z,39.06
2018-01-30T16:28:16.463Z,39.12
2018-01-30T16:30:46.737Z,39.69
2018-01-30T16:33:16.989Z,38.68
2018-01-30T16:35:47.274Z,39.10
2018-01-30T16:38:17.539Z,39.36
2018-01-30T16:40:47.995Z,39.34
2018-01-30T16:43:18.293Z,44.28
2018-01-30T16:45:49.766Z,51.03
2018-01-30T16:48:20.008Z,41.03
2018-01-30T16:50:51.724Z,42.06
2018-01-30T16:53:22.074Z,42.00
2018-01-30T16:55:53.330Z,42.42
2018-01-30T16:58:23.643Z,41.28
2018-01-30T17:00:54.863Z,41.46
2018-01-30T17:03:25.347Z,41.42
2018-01-30T17:05:55.692Z,41.83
2018-01-30T17:08:27.064Z,42.03
2018-01-30T17:10:57.369Z,41.76
2018-01-30T17:13:27.637Z,42.21
2018-01-30T17:15:57.892Z,43.04
2018-01-30T17:19:55.362Z,48.15
2018-01-30T17:22:26.472Z,48.72
2018-01-30T17:24:57.693Z,49.21
2018-01-30T17:27:29.038Z,49.30
2018-01-30T17:30:00.187Z,49.37
2018-01-30T17:32:31.555Z,49.07
2018-01-30T17:35:03.089Z,49.51
2018-01-30T17:37:34.459Z,49.73
2018-01-30T17:40:06.022Z,49.94
2018-01-30T17:42:37.372Z,50.08
2018-01-30T17:45:08.453Z,49.67
2018-01-30T17:47:39.993Z,49.45
2018-01-30T17:50:11.427Z,48.80
2018-01-30T17:52:42.448Z,48.09
2018-01-30T17:55:13.460Z,47.83
2018-01-30T17:57:44.561Z,46.38
2018-01-30T18:00:15.540Z,44.20
2018-01-30T18:02:46.845Z,42.60
2018-01-30T18:05:18.240Z,42.07
2018-01-30T18:07:49.353Z,39.69
2018-01-30T18:10:20.726Z,39.07
2018-01-30T18:12:51.638Z,38.47
2018-01-30T18:15:22.814Z,37.30
2018-01-30T18:17:54.589Z,36.88
2018-01-30T18:20:26.083Z,36.87
2018-01-30T18:22:56.813Z,36.09
2018-01-30T18:25:28.176Z,35.26
2018-01-30T18:27:59.349Z,34.96
2018-01-30T18:30:30.389Z,34.30
2018-01-30T18:33:01.800Z,34.02
2018-01-30T18:35:32.943Z,33.72
2018-01-30T18:38:03.917Z,32.98
2018-01-30T18:40:35.062Z,32.70
2018-01-30T18:43:06.444Z,32.74
2018-01-30T18:45:37.313Z,32.46
2018-01-30T18:48:08.319Z,31.67
2018-01-30T18:50:39.364Z,31.53
2018-01-30T18:53:10.780Z,31.83
2018-01-30T18:55:42.132Z,31.13
2018-01-30T18:58:13.480Z,30.80
2018-01-30T19:00:44.619Z,30.61
2018-01-30T19:03:15.984Z,31.86
2018-01-30T19:05:47.113Z,35.79
2018-01-30T19:08:18.176Z,37.60
2018-01-30T19:10:49.624Z,37.91
2018-01-30T19:13:20.288Z,37.99
2018-01-30T19:15:51.233Z,37.87
2018-01-30T19:18:22.208Z,37.73
2018-01-30T19:20:53.331Z,37.61
2018-01-30T19:23:24.460Z,37.06
2018-01-30T19:25:55.472Z,36.76
2018-01-30T19:28:26.549Z,36.95
2018-01-30T19:30:58.386Z,36.58
2018-01-30T19:33:31.458Z,35.28
2018-01-30T19:36:02.483Z,35.36
2018-01-30T19:38:33.576Z,35.81
2018-01-30T19:41:04.604Z,35.20
2018-01-30T19:43:35.829Z,35.60
2018-01-30T19:46:07.043Z,35.30
2018-01-30T19:48:38.231Z,35.46
2018-01-30T19:51:10.300Z,35.38
2018-01-30T19:53:41.607Z,35.23
2018-01-30T19:56:12.546Z,35.08
2018-01-30T19:58:43.614Z,34.99
2018-01-30T20:01:14.977Z,35.23
2018-01-30T20:03:46.207Z,34.96
2018-01-30T20:06:17.173Z,34.76
2018-01-30T20:08:48.152Z,34.83
2018-01-30T20:11:19.057Z,34.76
2018-01-30T20:13:50.238Z,34.79
2018-01-30T20:16:21.585Z,34.68
2018-01-30T20:18:52.345Z,34.76
2018-01-30T20:21:23.464Z,34.90
2018-01-30T20:23:54.401Z,34.77
2018-01-30T20:26:30.310Z,34.81
2018-01-30T20:29:01.653Z,34.89
2018-01-30T20:31:33.198Z,34.88
2018-01-30T20:34:04.629Z,34.88
2018-01-30T20:36:35.647Z,34.81
2018-01-30T20:39:06.813Z,34.86
2018-01-30T20:41:38.193Z,35.00
2018-01-30T20:44:09.482Z,34.83
2018-01-30T20:46:40.224Z,34.92
2018-01-30T20:49:10.775Z,35.06
2018-01-30T20:51:41.109Z,34.86
2018-01-30T20:54:11.408Z,35.13
2018-01-30T20:56:41.847Z,34.81
2018-01-30T20:59:12.081Z,34.90
2018-01-30T21:01:42.304Z,34.69
2018-01-30T21:04:12.592Z,34.73
2018-01-30T21:06:42.866Z,34.45
2018-01-30T21:09:13.137Z,34.36
2018-01-30T21:11:43.496Z,34.21
2018-01-30T21:14:13.784Z,33.69
2018-01-30T21:16:44.212Z,33.59
2018-01-30T21:19:14.441Z,33.75
2018-01-30T21:21:44.680Z,33.91
2018-01-30T21:24:14.928Z,33.85
2018-01-30T21:26:45.206Z,33.60
2018-01-30T21:29:15.440Z,32.22
2018-01-30T21:31:46.332Z,32.44
2018-01-30T21:34:16.640Z,32.36
2018-01-30T21:36:46.872Z,32.53
2018-01-30T21:39:17.134Z,32.35
2018-01-30T21:41:47.459Z,32.54
2018-01-30T21:44:17.738Z,32.28
2018-01-30T21:46:48.008Z,32.59
2018-01-30T21:49:18.327Z,33.43
2018-01-30T21:51:48.548Z,32.88
2018-01-30T21:54:18.772Z,32.05
2018-01-30T21:56:49.038Z,31.50
2018-01-30T21:59:19.315Z,31.91
2018-01-30T22:01:49.512Z,31.45
2018-01-30T22:04:19.784Z,32.27
2018-01-30T22:06:50.052Z,31.98
2018-01-30T22:09:20.363Z,33.15
2018-01-30T22:11:50.628Z,33.44
2018-01-30T22:14:20.957Z,32.41
2018-01-30T22:16:51.217Z,32.86
2018-01-30T22:19:21.477Z,33.12
2018-01-30T22:21:51.723Z,33.25
2018-01-30T22:24:21.960Z,33.31
2018-01-30T22:26:53.053Z,33.49
2018-01-30T22:29:24.420Z,33.66
2018-01-30T22:31:54.637Z,33.62
2018-01-30T22:34:24.880Z,33.51
2018-01-30T22:36:56.234Z,34.07
2018-01-30T22:39:27.320Z,34.00
2018-01-30T22:41:58.236Z,34.38
2018-01-30T22:44:30.055Z,34.36
2018-01-30T22:46:59.042Z,33.58
